createdAt,value
2022-10-20T00:01:21.445Z,95059.09
2022-10-20T00:03:48.691Z,95099.09
2022-10-20T00:06:17.937Z,95130.28
2022-10-20T00:08:46.809Z,95101.16
2022-10-20T00:11:17.111Z,95098.84
2022-10-20T00:13:46.054Z,95092.22
2022-10-20T00:16:13.749Z,95065.47
2022-10-20T00:18:41.361Z,95094.09
2022-10-20T00:21:23.090Z,95135.16
2022-10-20T00:23:49.986Z,95117.06
2022-10-20T00:26:22.487Z,95095.97
2022-10-20T00:28:49.446Z,95101.13
2022-10-20T00:31:18.194Z,95046.53
2022-10-20T00:33:46.422Z,95096.47
2022-10-20T00:36:16.594Z,95098.13
2022-10-20T00:38:44.759Z,95058.41
2022-10-20T00:41:15.762Z,95101.88
2022-10-20T00:44:13.351Z,95090.31
2022-10-20T00:46:42.219Z,95099.63
2022-10-20T00:49:16.266Z,95104.13
2022-10-20T00:51:44.381Z,95056.63
2022-10-20T00:54:16.090Z,95099.31
2022-10-20T00:56:47.198Z,95100.41
2022-10-20T00:59:18.725Z,95071.41
2022-10-20T01:01:46.604Z,95048.16
2022-10-20T01:04:16.058Z,95082.38
2022-10-20T01:06:43.367Z,95090.25
2022-10-20T01:09:10.430Z,95061.19
2022-10-20T01:11:55.049Z,95006.44
2022-10-20T01:14:24.562Z,95042.34
2022-10-20T01:17:38.155Z,95051.88
2022-10-20T01:20:35.822Z,95036.06
2022-10-20T01:23:36.206Z,95067.25
2022-10-20T01:26:33.570Z,95042.66
2022-10-20T01:29:05.249Z,95056.47
2022-10-20T01:31:48.551Z,95063.91
2022-10-20T01:34:31.287Z,95023.41
2022-10-20T01:37:28.247Z,95044.25
2022-10-20T01:40:08.723Z,95044.78
2022-10-20T01:42:38.346Z,95041.28
2022-10-20T01:45:06.983Z,95051.44
2022-10-20T01:47:36.597Z,95029.47
2022-10-20T01:50:05.850Z,95062.09
2022-10-20T01:52:33.438Z,95069.03
2022-10-20T01:55:01.477Z,95056.84
2022-10-20T01:58:07.166Z,95062.94
2022-10-20T02:00:38.843Z,94983.13
2022-10-20T02:03:32.189Z,95041.03
2022-10-20T02:06:20.773Z,95034.66
2022-10-20T02:08:52.711Z,95000.69
2022-10-20T02:11:46.710Z,95021.00
2022-10-20T02:14:17.282Z,95034.84
2022-10-20T02:16:56.805Z,95014.13
2022-10-20T02:19:26.482Z,95030.72
2022-10-20T02:21:56.517Z,95013.06
2022-10-20T02:24:28.934Z,95008.25
2022-10-20T02:26:58.114Z,95023.31
2022-10-20T02:29:32.758Z,95033.88
2022-10-20T02:32:00.014Z,95000.28
2022-10-20T02:34:27.974Z,95010.38
2022-10-20T02:36:58.634Z,95025.59
2022-10-20T02:39:26.173Z,95013.97
2022-10-20T02:41:52.905Z,95029.75
2022-10-20T02:44:19.638Z,94998.28
2022-10-20T02:46:47.161Z,94977.63
2022-10-20T02:49:13.873Z,95001.91
2022-10-20T02:51:40.855Z,95015.16
2022-10-20T02:54:07.601Z,95020.97
2022-10-20T02:56:34.469Z,95013.97
2022-10-20T02:59:02.220Z,94978.38
2022-10-20T03:01:28.999Z,94997.81
2022-10-20T03:03:59.663Z,94990.91
2022-10-20T03:06:27.686Z,94984.66
2022-10-20T03:08:54.424Z,94996.03
2022-10-20T03:11:21.279Z,94988.84
2022-10-20T03:13:48.383Z,94996.06
2022-10-20T03:16:15.410Z,94984.66
2022-10-20T03:18:42.201Z,95004.97
2022-10-20T03:21:09.081Z,95016.72
2022-10-20T03:23:35.801Z,94963.53
2022-10-20T03:26:08.232Z,94973.38
2022-10-20T03:28:35.145Z,94993.66
2022-10-20T03:31:02.774Z,95000.38
2022-10-20T03:33:29.400Z,95038.53
2022-10-20T03:35:56.257Z,94978.50
2022-10-20T03:38:23.287Z,95001.06
2022-10-20T03:40:50.275Z,95018.94
2022-10-20T03:43:17.887Z,95015.53
2022-10-20T03:45:45.773Z,94924.81
2022-10-20T03:48:13.020Z,94980.41
2022-10-20T03:50:41.606Z,94981.81
2022-10-20T03:53:11.853Z,94969.25
2022-10-20T03:55:38.714Z,94995.81
2022-10-20T03:58:05.428Z,95031.63
2022-10-20T04:00:32.945Z,94998.28
2022-10-20T04:02:59.635Z,95007.41
2022-10-20T04:05:26.364Z,94984.63
2022-10-20T04:07:53.038Z,95014.00
2022-10-20T04:10:20.076Z,94985.41
2022-10-20T04:12:47.121Z,94989.06
2022-10-20T04:15:13.982Z,95000.34
2022-10-20T04:17:40.706Z,94994.41
2022-10-20T04:20:08.271Z,95002.97
2022-10-20T04:22:35.338Z,94971.91
2022-10-20T04:25:03.128Z,94982.59
2022-10-20T04:27:29.849Z,94939.38
2022-10-20T04:29:56.536Z,94961.50
2022-10-20T04:32:23.324Z,94990.34
2022-10-20T04:34:50.190Z,95019.16
2022-10-20T04:37:18.041Z,94993.88
2022-10-20T04:39:44.741Z,94947.84
2022-10-20T04:42:11.502Z,94997.88
2022-10-20T04:44:38.243Z,94957.94
2022-10-20T04:47:05.238Z,94940.72
2022-10-20T04:49:32.390Z,94976.75
2022-10-20T04:52:01.212Z,94974.97
2022-10-20T04:54:29.534Z,94975.41
2022-10-20T04:56:56.508Z,94962.06
2022-10-20T04:59:23.418Z,94944.22
2022-10-20T05:01:50.536Z,94909.75
2022-10-20T05:04:21.970Z,94947.97
2022-10-20T05:06:50.337Z,94938.88
2022-10-20T05:09:19.206Z,94949.78
2022-10-20T05:11:46.958Z,94967.94
2022-10-20T05:14:14.000Z,94930.47
2022-10-20T05:16:40.731Z,94934.63
2022-10-20T05:19:07.598Z,94952.50
2022-10-20T05:21:34.699Z,94961.84
2022-10-20T05:24:05.541Z,94948.09
2022-10-20T05:26:37.099Z,94935.22
2022-10-20T05:29:06.613Z,94988.28
2022-10-20T05:31:44.044Z,94964.50
2022-10-20T05:34:11.618Z,94882.00
2022-10-20T05:36:39.050Z,94952.50
2022-10-20T05:39:05.961Z,94909.63
2022-10-20T05:41:37.864Z,94939.44
2022-10-20T05:44:08.577Z,94944.34
2022-10-20T05:46:42.857Z,94921.09
2022-10-20T05:49:15.639Z,94934.69
2022-10-20T05:51:43.235Z,94922.72
2022-10-20T05:54:12.199Z,94943.03
2022-10-20T05:56:39.442Z,94868.88
2022-10-20T05:59:06.175Z,94890.66
2022-10-20T06:01:49.517Z,94920.41
2022-10-20T06:04:23.886Z,94908.16
2022-10-20T06:06:52.751Z,94946.25
2022-10-20T06:09:20.717Z,94934.38
2022-10-20T06:11:48.151Z,94929.75
2022-10-20T06:14:15.198Z,94933.06
2022-10-20T06:16:41.928Z,94917.66
2022-10-20T06:19:08.735Z,94952.84
2022-10-20T06:21:37.024Z,94916.56
2022-10-20T06:24:05.826Z,94941.03
2022-10-20T06:26:38.461Z,94984.88
2022-10-20T06:29:07.318Z,94975.94
2022-10-20T06:31:39.132Z,94961.06
2022-10-20T06:34:08.216Z,94892.50
2022-10-20T06:36:39.331Z,94928.91
2022-10-20T06:39:08.558Z,94959.88
2022-10-20T06:41:35.950Z,94965.94
2022-10-20T06:44:03.623Z,94963.94
2022-10-20T06:46:36.005Z,94906.66
2022-10-20T06:49:05.369Z,94973.91
2022-10-20T06:51:34.332Z,94957.47
2022-10-20T06:54:02.833Z,94969.00
2022-10-20T06:56:32.578Z,94906.91
2022-10-20T06:59:01.431Z,94945.84
2022-10-20T07:01:30.810Z,94970.03
2022-10-20T07:04:00.666Z,94934.94
2022-10-20T07:06:36.217Z,94948.22
2022-10-20T07:09:06.146Z,94929.84
2022-10-20T07:11:33.513Z,94935.13
2022-10-20T07:14:01.513Z,94949.59
2022-10-20T07:16:31.798Z,94935.44
2022-10-20T07:18:58.744Z,94934.78
2022-10-20T07:21:32.243Z,94918.81
2022-10-20T07:24:05.177Z,94901.31
2022-10-20T07:26:35.242Z,94942.06
2022-10-20T07:29:04.082Z,94940.16
2022-10-20T07:31:35.151Z,94982.31
2022-10-20T07:34:20.278Z,94920.16
2022-10-20T07:36:50.574Z,94929.44
2022-10-20T07:39:17.294Z,94952.00
2022-10-20T07:41:48.395Z,94943.53
2022-10-20T07:44:16.598Z,94897.03
2022-10-20T07:46:43.623Z,94897.13
2022-10-20T07:49:43.068Z,94930.63
2022-10-20T07:51:57.273Z,94948.97
2022-10-20T07:54:23.985Z,94958.91
2022-10-20T07:56:50.801Z,94960.31
2022-10-20T07:59:18.108Z,94974.66
2022-10-20T08:01:44.931Z,94961.75
2022-10-20T08:04:11.797Z,94955.56
2022-10-20T08:06:39.072Z,94938.31
2022-10-20T08:09:07.393Z,94883.13
2022-10-20T08:11:35.831Z,94931.34
2022-10-20T08:14:02.764Z,94934.97
2022-10-20T08:16:34.986Z,94935.97
2022-10-20T08:19:25.069Z,94905.22
2022-10-20T08:21:52.386Z,94885.03
2022-10-20T08:24:20.698Z,94890.50
2022-10-20T08:26:49.611Z,94922.16
2022-10-20T08:29:16.363Z,94930.69
2022-10-20T08:31:44.682Z,94891.59
2022-10-20T08:34:11.970Z,94898.56
2022-10-20T08:36:38.810Z,94888.03
2022-10-20T08:39:06.572Z,94921.47
2022-10-20T08:41:55.203Z,94905.41
2022-10-20T08:44:31.925Z,94941.91
2022-10-20T08:47:01.337Z,94918.00
2022-10-20T08:49:31.763Z,94918.84
2022-10-20T08:51:58.999Z,94913.34
2022-10-20T08:54:25.801Z,94864.09
2022-10-20T08:56:52.834Z,94849.78
2022-10-20T08:59:34.917Z,94868.56
2022-10-20T09:02:04.038Z,94918.75
2022-10-20T09:07:25.962Z,94903.53
2022-10-20T09:09:57.224Z,94900.47
2022-10-20T09:12:28.737Z,94891.41
2022-10-20T09:14:57.999Z,94919.34
2022-10-20T09:17:24.870Z,94930.84
2022-10-20T09:19:55.834Z,94890.53
2022-10-20T09:22:26.210Z,94885.22
2022-10-20T09:24:57.171Z,94904.72
2022-10-20T09:27:31.713Z,94878.72
2022-10-20T09:29:58.549Z,94870.28
2022-10-20T09:32:48.176Z,94936.47
2022-10-20T09:35:15.053Z,94931.78
2022-10-20T09:37:44.888Z,94936.03
2022-10-20T09:40:16.341Z,94945.81
2022-10-20T09:42:54.362Z,94899.50
2022-10-20T09:45:51.351Z,94913.31
2022-10-20T09:48:26.137Z,94914.97
2022-10-20T09:50:56.186Z,94924.38
2022-10-20T09:53:30.514Z,94899.72
2022-10-20T09:55:57.470Z,94874.94
2022-10-20T09:58:39.302Z,94854.09
2022-10-20T10:01:14.827Z,94889.69
2022-10-20T10:03:50.351Z,94876.81
2022-10-20T10:06:22.547Z,94912.00
2022-10-20T10:08:49.540Z,94870.28
2022-10-20T10:11:19.292Z,94932.19
2022-10-20T10:13:50.455Z,94898.13
2022-10-20T10:16:20.497Z,94915.00
2022-10-20T10:19:02.389Z,94890.53
2022-10-20T10:21:43.031Z,94903.63
2022-10-20T10:24:29.694Z,94907.94
2022-10-20T10:26:57.068Z,94890.97
2022-10-20T10:29:28.623Z,94871.41
2022-10-20T10:32:15.689Z,94923.41
2022-10-20T10:34:49.681Z,94880.91
2022-10-20T10:37:17.727Z,94909.16
2022-10-20T10:39:44.534Z,94900.97
2022-10-20T10:42:37.142Z,94879.47
2022-10-20T10:45:03.961Z,94901.38
2022-10-20T10:47:56.352Z,94867.66
2022-10-20T10:50:36.147Z,94885.00
2022-10-20T10:53:11.589Z,94908.25
2022-10-20T10:55:55.192Z,94873.94
2022-10-20T10:58:34.288Z,94881.81
2022-10-20T11:01:15.533Z,94919.25
2022-10-20T11:04:22.157Z,94905.50
2022-10-20T11:07:29.589Z,94868.56
2022-10-20T11:10:02.455Z,94872.03
2022-10-20T11:12:51.177Z,94870.81
2022-10-20T11:15:27.496Z,94846.97
2022-10-20T11:18:07.939Z,94873.59
2022-10-20T11:20:56.533Z,94828.78
2022-10-20T11:23:58.153Z,94829.63
2022-10-20T11:26:37.231Z,94850.56
2022-10-20T11:29:16.375Z,94821.31
2022-10-20T11:31:58.913Z,94812.66
2022-10-20T11:34:56.523Z,94859.72
2022-10-20T11:37:31.601Z,94837.09
2022-10-20T11:40:14.796Z,94809.41
2022-10-20T11:42:52.725Z,94826.59
2022-10-20T11:45:25.334Z,94813.00
2022-10-20T11:48:10.750Z,94799.94
2022-10-20T11:50:39.066Z,94844.38
2022-10-20T11:53:34.463Z,94839.25
2022-10-20T11:56:14.876Z,94840.19
2022-10-20T11:59:09.174Z,94821.94
2022-10-20T12:01:54.767Z,94795.78
2022-10-20T12:04:45.277Z,94798.03
2022-10-20T12:07:23.990Z,94806.63
2022-10-20T12:10:24.522Z,94782.66
2022-10-20T12:13:01.023Z,94761.03
2022-10-20T12:15:28.248Z,94787.06
2022-10-20T12:18:06.873Z,94772.34
2022-10-20T12:20:37.579Z,94779.66
2022-10-20T12:23:04.555Z,94757.44
2022-10-20T12:25:31.233Z,94769.03
2022-10-20T12:28:23.086Z,94750.25
2022-10-20T12:31:07.111Z,94790.34
2022-10-20T12:33:38.756Z,94779.84
2022-10-20T12:36:14.817Z,94803.25
2022-10-20T12:38:43.130Z,94780.31
2022-10-20T12:41:12.478Z,94793.63
2022-10-20T12:43:49.485Z,94785.69
2022-10-20T12:46:21.811Z,94773.78
2022-10-20T12:48:56.814Z,94757.78
2022-10-20T12:51:37.003Z,94811.09
2022-10-20T12:54:19.269Z,94776.06
2022-10-20T12:56:46.328Z,94805.50
2022-10-20T12:59:31.075Z,94785.66
2022-10-20T13:02:10.018Z,94736.13
2022-10-20T13:04:58.675Z,94762.06
2022-10-20T13:07:47.128Z,94780.34
2022-10-20T13:10:37.944Z,94784.28
2022-10-20T13:13:04.620Z,94760.53
2022-10-20T13:15:32.663Z,94770.84
2022-10-20T13:18:03.962Z,94799.13
2022-10-20T13:20:42.794Z,94780.94
2022-10-20T13:23:17.784Z,94772.28
2022-10-20T13:25:48.541Z,94807.19
2022-10-20T13:28:30.909Z,94781.41
2022-10-20T13:31:15.927Z,94766.16
2022-10-20T13:34:03.978Z,94771.94
2022-10-20T13:36:54.035Z,94788.91
2022-10-20T13:39:42.202Z,94766.75
2022-10-20T13:42:20.815Z,94766.84
2022-10-20T13:45:34.425Z,94781.63
2022-10-20T13:48:01.187Z,94792.09
2022-10-20T13:50:32.872Z,94787.00
2022-10-20T13:53:04.899Z,94773.78
2022-10-20T13:55:59.391Z,94750.38
2022-10-20T13:58:27.075Z,94787.91
2022-10-20T14:01:07.584Z,94770.50
2022-10-20T14:03:43.129Z,94786.66
2022-10-20T14:06:28.214Z,94793.91
2022-10-20T14:09:08.779Z,94805.28
2022-10-20T14:11:35.591Z,94825.63
2022-10-20T14:14:02.820Z,94801.34
2022-10-20T14:16:31.612Z,94804.63
2022-10-20T14:19:07.895Z,94785.28
2022-10-20T14:21:46.822Z,94787.91
2022-10-20T14:24:25.838Z,94812.94
2022-10-20T14:29:32.354Z,94821.19
2022-10-20T14:31:59.784Z,94807.34
2022-10-20T14:34:31.251Z,94823.97
2022-10-20T14:36:58.520Z,94788.69
2022-10-20T14:39:39.623Z,94790.06
2022-10-20T14:42:44.112Z,94790.34
2022-10-20T14:45:24.866Z,94786.09
2022-10-20T14:47:55.083Z,94811.59
2022-10-20T14:50:28.083Z,94768.16
2022-10-20T14:52:55.084Z,94798.63
2022-10-20T14:55:35.263Z,94794.16
2022-10-20T14:58:03.229Z,94788.25
2022-10-20T15:00:33.197Z,94794.44
2022-10-20T15:03:03.283Z,94790.28
2022-10-20T15:05:40.695Z,94786.84
2022-10-20T15:08:19.665Z,94750.53
2022-10-20T15:10:46.711Z,94702.00
2022-10-20T15:13:29.164Z,94710.16
2022-10-20T15:16:00.726Z,94710.94
2022-10-20T15:18:28.802Z,94703.56
2022-10-20T15:20:56.652Z,94696.34
2022-10-20T15:23:25.942Z,94685.16
2022-10-20T15:26:06.273Z,94703.00
2022-10-20T15:28:47.214Z,94705.56
2022-10-20T15:31:13.925Z,94743.31
2022-10-20T15:33:41.340Z,94725.28
2022-10-20T15:36:20.193Z,94745.06
2022-10-20T15:38:49.848Z,94770.56
2022-10-20T15:41:19.997Z,94718.91
2022-10-20T15:43:47.580Z,94750.72
2022-10-20T15:46:16.386Z,94745.66
2022-10-20T15:48:43.971Z,94728.91
2022-10-20T15:51:20.867Z,94734.66
2022-10-20T15:53:49.503Z,94714.56
2022-10-20T15:56:17.574Z,94714.38
2022-10-20T15:58:45.013Z,94682.81
2022-10-20T16:01:16.927Z,94710.25
2022-10-20T16:03:44.727Z,94694.63
2022-10-20T16:06:15.979Z,94683.38
2022-10-20T16:08:44.047Z,94692.47
2022-10-20T16:11:11.856Z,94680.19
2022-10-20T16:13:43.005Z,94643.13
2022-10-20T16:16:17.702Z,94652.53
2022-10-20T16:18:45.714Z,94640.41
2022-10-20T16:21:12.539Z,94654.38
2022-10-20T16:23:42.524Z,94652.50
2022-10-20T16:26:13.007Z,94658.34
2022-10-20T16:28:41.131Z,94665.09
2022-10-20T16:31:11.389Z,94669.03
2022-10-20T16:33:39.683Z,94650.53
2022-10-20T16:36:11.083Z,94619.75
2022-10-20T16:38:40.223Z,94659.66
2022-10-20T16:41:11.286Z,94681.75
2022-10-20T16:43:41.231Z,94656.56
2022-10-20T16:46:11.260Z,94636.50
2022-10-20T16:48:48.362Z,94652.22
2022-10-20T16:51:16.838Z,94626.31
2022-10-20T16:53:44.001Z,94676.28
2022-10-20T16:56:15.400Z,94681.78
2022-10-20T16:58:45.469Z,94657.50
2022-10-20T17:01:13.705Z,94672.03
2022-10-20T17:06:17.179Z,94627.78
2022-10-20T17:08:44.425Z,94634.88
2022-10-20T17:11:15.003Z,94667.25
2022-10-20T17:13:42.129Z,94665.59
2022-10-20T17:16:13.084Z,94655.19
2022-10-20T17:18:41.425Z,94673.13
2022-10-20T17:21:11.078Z,94636.53
2022-10-20T17:23:42.671Z,94676.31
2022-10-20T17:26:13.883Z,94662.19
2022-10-20T17:28:42.041Z,94678.25
2022-10-20T17:31:13.344Z,94684.00
2022-10-20T17:33:42.834Z,94647.38
2022-10-20T17:36:12.673Z,94664.44
2022-10-20T17:38:42.270Z,94654.44
2022-10-20T17:41:13.056Z,94688.94
2022-10-20T17:43:41.586Z,94678.81
2022-10-20T17:46:13.937Z,94662.59
2022-10-20T17:48:42.168Z,94644.31
2022-10-20T17:51:13.723Z,94690.50
2022-10-20T17:53:45.509Z,94692.72
2022-10-20T17:56:25.506Z,94676.53
2022-10-20T17:58:52.224Z,94668.00
2022-10-20T18:01:23.334Z,94656.19
2022-10-20T18:03:58.190Z,94639.22
2022-10-20T18:06:33.548Z,94644.63
2022-10-20T18:09:04.513Z,94659.94
2022-10-20T18:11:33.345Z,94660.25
2022-10-20T18:14:00.470Z,94616.06
2022-10-20T18:16:30.523Z,94607.63
2022-10-20T18:18:59.102Z,94626.41
2022-10-20T18:21:27.978Z,94588.41
2022-10-20T18:24:02.199Z,94559.03
2022-10-20T18:26:30.837Z,94579.47
2022-10-20T18:28:59.339Z,94608.47
2022-10-20T18:31:28.958Z,94535.94
2022-10-20T18:34:02.558Z,94588.13
2022-10-20T18:36:34.552Z,94581.91
2022-10-20T18:39:01.475Z,94588.66
2022-10-20T18:41:30.634Z,94605.63
2022-10-20T18:43:59.915Z,94623.28
2022-10-20T18:46:29.342Z,94611.94
2022-10-20T18:48:58.042Z,94590.09
2022-10-20T18:51:26.042Z,94584.56
2022-10-20T18:53:58.093Z,94608.44
2022-10-20T18:56:27.925Z,94600.91
2022-10-20T18:59:00.158Z,94607.31
2022-10-20T19:01:30.647Z,94596.91
2022-10-20T19:03:58.979Z,94622.91
2022-10-20T19:06:29.666Z,94614.63
2022-10-20T19:09:00.713Z,94622.06
2022-10-20T19:11:30.952Z,94587.72
2022-10-20T19:13:58.696Z,94608.88
2022-10-20T19:16:28.885Z,94587.81
2022-10-20T19:18:57.631Z,94604.59
2022-10-20T19:21:27.555Z,94606.88
2022-10-20T19:24:20.004Z,94614.69
2022-10-20T19:26:57.588Z,94598.28
2022-10-20T19:29:39.405Z,94596.00
2022-10-20T19:32:07.062Z,94591.22
2022-10-20T19:34:41.460Z,94600.28
2022-10-20T19:37:09.210Z,94581.53
2022-10-20T19:39:40.344Z,94606.13
2022-10-20T19:42:09.636Z,94582.56
2022-10-20T19:44:37.192Z,94596.75
2022-10-20T19:47:05.064Z,94617.78
2022-10-20T19:49:32.191Z,94624.06
2022-10-20T19:51:59.040Z,94589.53
2022-10-20T19:54:26.860Z,94607.69
2022-10-20T19:56:53.729Z,94620.16
2022-10-20T19:59:20.630Z,94621.72
2022-10-20T20:01:49.701Z,94610.44
2022-10-20T20:04:16.391Z,94611.38
2022-10-20T20:06:43.436Z,94596.72
2022-10-20T20:09:13.293Z,94629.41
2022-10-20T20:11:40.781Z,94644.53
2022-10-20T20:14:15.645Z,94632.50
2022-10-20T20:16:46.130Z,94638.78
2022-10-20T20:19:14.132Z,94634.78
2022-10-20T20:21:40.905Z,94642.63
2022-10-20T20:24:14.204Z,94623.28
2022-10-20T20:26:42.182Z,94617.03
2022-10-20T20:29:10.942Z,94632.91
2022-10-20T20:31:38.825Z,94626.38
2022-10-20T20:34:05.686Z,94613.91
2022-10-20T20:36:32.612Z,94638.34
2022-10-20T20:39:00.211Z,94659.66
2022-10-20T20:41:30.334Z,94651.78
2022-10-20T20:44:02.913Z,94641.03
2022-10-20T20:46:33.657Z,94648.06
2022-10-20T20:49:01.716Z,94609.09
2022-10-20T20:51:33.353Z,94621.72
2022-10-20T20:54:01.078Z,94629.47
2022-10-20T20:56:29.902Z,94645.09
2022-10-20T20:58:58.057Z,94641.91
2022-10-20T21:01:31.299Z,94631.41
2022-10-20T21:04:01.291Z,94650.94
2022-10-20T21:07:00.119Z,94632.50
2022-10-20T21:09:17.935Z,94616.59
2022-10-20T21:11:44.612Z,94670.50
2022-10-20T21:14:12.547Z,94645.84
2022-10-20T21:16:39.333Z,94653.50
2022-10-20T21:19:10.523Z,94705.44
2022-10-20T21:21:40.442Z,94684.00
2022-10-20T21:24:07.353Z,94690.13
2022-10-20T21:26:34.123Z,94661.63
2022-10-20T21:29:01.085Z,94701.03
2022-10-20T21:31:30.198Z,94694.56
2022-10-20T21:34:00.637Z,94708.13
2022-10-20T21:36:30.411Z,94747.00
2022-10-20T21:38:59.667Z,94741.91
2022-10-20T21:41:30.529Z,94759.00
2022-10-20T21:43:59.778Z,94753.09
2022-10-20T21:46:29.086Z,94748.75
2022-10-20T21:49:02.385Z,94767.75
2022-10-20T21:51:32.873Z,94767.03
2022-10-20T21:54:02.137Z,94764.97
2022-10-20T21:56:30.276Z,94733.13
2022-10-20T21:58:57.771Z,94732.06
2022-10-20T22:01:25.814Z,94701.25
2022-10-20T22:03:54.047Z,94717.69
2022-10-20T22:06:25.872Z,94771.66
2022-10-20T22:08:55.379Z,94798.84
2022-10-20T22:11:31.450Z,94767.78
2022-10-20T22:13:59.266Z,94778.13
2022-10-20T22:16:29.318Z,94786.69
2022-10-20T22:18:57.997Z,94783.63
2022-10-20T22:21:25.915Z,94771.31
2022-10-20T22:23:58.069Z,94779.84
2022-10-20T22:26:29.900Z,94811.94
2022-10-20T22:28:59.169Z,94809.16
2022-10-20T22:31:26.914Z,94777.75
2022-10-20T22:33:56.406Z,94770.34
2022-10-20T22:36:24.340Z,94793.72
2022-10-20T22:38:51.271Z,94803.47
2022-10-20T22:41:18.022Z,94790.00
2022-10-20T22:43:44.797Z,94794.13
2022-10-20T22:46:11.752Z,94776.38
2022-10-20T22:48:38.659Z,94792.03
2022-10-20T22:51:06.913Z,94776.38
2022-10-20T22:53:33.863Z,94775.16
2022-10-20T22:56:18.978Z,94767.81
2022-10-20T22:58:46.190Z,94774.38
2022-10-20T23:01:16.380Z,94753.34
2022-10-20T23:03:45.202Z,94772.16
2022-10-20T23:06:21.937Z,94775.66
2022-10-20T23:08:50.746Z,94780.34
2022-10-20T23:11:18.399Z,94754.41
2022-10-20T23:13:45.945Z,94750.66
2022-10-20T23:16:15.056Z,94720.53
2022-10-20T23:18:41.919Z,94742.06
2022-10-20T23:21:09.098Z,94745.72
2022-10-20T23:23:37.575Z,94744.56
2022-10-20T23:26:08.347Z,94747.09
2022-10-20T23:28:36.597Z,94746.00
2022-10-20T23:31:17.706Z,94731.88
2022-10-20T23:33:46.239Z,94720.88
2022-10-20T23:36:15.521Z,94727.31
2022-10-20T23:38:44.753Z,94705.88
2022-10-20T23:41:11.552Z,94696.69
2022-10-20T23:43:38.346Z,94730.81
2022-10-20T23:46:06.205Z,94698.38
2022-10-20T23:48:33.946Z,94715.22
2022-10-20T23:51:00.654Z,94704.72
2022-10-20T23:53:27.668Z,94653.53
2022-10-20T23:55:55.469Z,94651.59
2022-10-20T23:58:23.280Z,94696.06
